createdAt,value
2023-11-20T00:02:10.074Z,14.24
2023-11-20T00:04:36.740Z,14.61
2023-11-20T00:07:03.339Z,14.34
2023-11-20T00:09:29.946Z,14.52
2023-11-20T00:11:56.545Z,14.39
2023-11-20T00:14:23.123Z,14.41
2023-11-20T00:16:49.783Z,14.44
2023-11-20T00:19:16.430Z,14.41
2023-11-20T00:21:43.070Z,14.27
2023-11-20T00:24:09.779Z,14.32
2023-11-20T00:26:36.414Z,14.43
2023-11-20T00:29:03.249Z,14.10
2023-11-20T00:31:29.851Z,14.16
2023-11-20T00:33:56.521Z,13.90
2023-11-20T00:36:23.117Z,14.24
2023-11-20T00:38:49.730Z,14.15
2023-11-20T00:41:16.408Z,14.11
2023-11-20T00:43:42.975Z,14.09
2023-11-20T00:46:09.621Z,13.83
2023-11-20T00:48:36.259Z,13.96
2023-11-20T00:51:02.941Z,14.01
2023-11-20T00:53:29.590Z,14.18
2023-11-20T00:55:56.183Z,14.12
2023-11-20T00:58:22.766Z,14.00
2023-11-20T01:00:49.410Z,14.17
2023-11-20T01:03:16.115Z,14.24
2023-11-20T01:05:42.762Z,14.24
2023-11-20T01:08:09.349Z,14.04
2023-11-20T01:10:35.979Z,14.04
2023-11-20T01:13:02.586Z,14.15
2023-11-20T01:15:29.225Z,14.11
2023-11-20T01:17:55.924Z,13.93
2023-11-20T01:20:22.504Z,13.78
2023-11-20T01:22:49.071Z,13.93
2023-11-20T01:25:15.678Z,14.10
2023-11-20T01:27:42.320Z,13.90
2023-11-20T01:30:08.905Z,13.87
2023-11-20T01:32:35.520Z,13.85
2023-11-20T01:35:02.123Z,14.12
2023-11-20T01:37:28.813Z,13.96
2023-11-20T01:39:55.473Z,13.72
2023-11-20T01:42:22.069Z,13.96
2023-11-20T01:44:48.622Z,14.09
2023-11-20T01:47:15.200Z,14.43
2023-11-20T01:49:41.764Z,14.18
2023-11-20T01:52:08.398Z,14.27
2023-11-20T01:54:35.035Z,14.07
2023-11-20T01:57:01.609Z,14.10
2023-11-20T01:59:28.187Z,14.05
2023-11-20T02:01:54.801Z,14.37
2023-11-20T02:04:21.440Z,14.30
2023-11-20T02:06:48.064Z,14.37
2023-11-20T02:09:14.695Z,14.25
2023-11-20T02:11:41.265Z,14.07
2023-11-20T02:14:07.846Z,13.89
2023-11-20T02:16:34.408Z,14.09
2023-11-20T02:19:01.034Z,14.32
2023-11-20T02:21:27.603Z,14.02
2023-11-20T02:23:54.190Z,13.88
2023-11-20T02:26:20.748Z,13.96
2023-11-20T02:28:47.411Z,13.89
2023-11-20T02:31:14.092Z,13.84
2023-11-20T02:33:40.756Z,14.07
2023-11-20T02:36:07.337Z,14.15
2023-11-20T02:38:33.916Z,14.20
2023-11-20T02:41:00.484Z,14.38
2023-11-20T02:43:27.394Z,14.16
2023-11-20T02:45:54.001Z,14.34
2023-11-20T02:48:20.601Z,14.30
2023-11-20T02:50:47.179Z,14.72
2023-11-20T02:53:13.601Z,14.47
2023-11-20T02:55:40.032Z,14.41
2023-11-20T02:58:06.523Z,14.38
2023-11-20T03:00:32.988Z,14.34
2023-11-20T03:02:59.493Z,14.39
2023-11-20T03:05:25.989Z,14.39
2023-11-20T03:07:52.404Z,14.35
2023-11-20T03:10:18.981Z,14.29
2023-11-20T03:12:45.487Z,14.34
2023-11-20T03:15:11.935Z,14.21
2023-11-20T03:17:41.281Z,14.46
2023-11-20T03:20:07.789Z,14.22
2023-11-20T03:22:34.403Z,14.09
2023-11-20T03:25:00.849Z,14.27
2023-11-20T03:27:27.305Z,14.14
2023-11-20T03:29:53.780Z,13.97
2023-11-20T03:32:20.217Z,14.07
2023-11-20T03:34:47.701Z,13.84
2023-11-20T03:37:14.159Z,14.21
2023-11-20T03:39:40.612Z,13.97
2023-11-20T03:42:07.103Z,13.92
2023-11-20T03:44:33.514Z,14.02
2023-11-20T03:47:00.005Z,13.99
2023-11-20T03:49:26.511Z,13.98
2023-11-20T03:51:53.111Z,13.93
2023-11-20T03:54:19.722Z,13.99
2023-11-20T03:56:46.279Z,13.97
2023-11-20T03:59:15.013Z,13.92
2023-11-20T04:01:41.619Z,14.10
2023-11-20T04:04:08.263Z,14.34
2023-11-20T04:06:34.884Z,14.27
2023-11-20T04:09:01.556Z,14.03
2023-11-20T04:11:28.122Z,14.32
2023-11-20T04:13:54.715Z,14.07
2023-11-20T04:16:21.288Z,14.22
2023-11-20T04:18:48.365Z,13.94
2023-11-20T04:21:15.171Z,13.95
2023-11-20T04:23:42.159Z,13.88
2023-11-20T04:26:08.712Z,14.29
2023-11-20T04:28:35.273Z,14.68
2023-11-20T04:31:02.186Z,14.43
2023-11-20T04:33:28.904Z,14.01
2023-11-20T04:35:55.500Z,14.00
2023-11-20T04:38:22.117Z,13.98
2023-11-20T04:40:48.716Z,14.14
2023-11-20T04:43:15.336Z,13.89
2023-11-20T04:45:41.947Z,13.92
2023-11-20T04:48:08.546Z,14.22
2023-11-20T04:50:35.116Z,14.12
2023-11-20T04:53:01.746Z,14.17
2023-11-20T04:55:28.374Z,14.28
2023-11-20T04:57:54.992Z,14.11
2023-11-20T05:00:21.634Z,13.99
2023-11-20T05:02:48.277Z,13.64
2023-11-20T05:05:14.933Z,13.93
2023-11-20T05:07:41.563Z,14.06
2023-11-20T05:10:08.339Z,14.22
2023-11-20T05:12:35.042Z,14.39
2023-11-20T05:15:01.680Z,14.31
2023-11-20T05:17:28.274Z,13.96
2023-11-20T05:19:55.014Z,14.09
2023-11-20T05:22:21.592Z,14.14
2023-11-20T05:24:48.202Z,14.20
2023-11-20T05:27:14.821Z,14.06
2023-11-20T05:29:41.388Z,14.04
2023-11-20T05:32:10.385Z,13.90
2023-11-20T05:34:36.994Z,13.86
2023-11-20T05:37:03.642Z,13.78
2023-11-20T05:39:30.220Z,13.92
2023-11-20T05:41:56.815Z,13.95
2023-11-20T05:44:23.446Z,14.04
2023-11-20T05:46:50.058Z,13.76
2023-11-20T05:49:16.705Z,13.87
2023-11-20T05:51:43.364Z,13.83
2023-11-20T05:54:09.961Z,13.97
2023-11-20T05:56:36.523Z,13.79
2023-11-20T05:59:05.676Z,13.86
2023-11-20T06:01:32.337Z,13.89
2023-11-20T06:03:59.035Z,13.63
2023-11-20T06:06:25.647Z,13.49
2023-11-20T06:08:52.212Z,13.67
2023-11-20T06:11:18.785Z,13.79
2023-11-20T06:13:45.364Z,13.74
2023-11-20T06:16:12.060Z,13.99
2023-11-20T06:18:38.843Z,13.98
2023-11-20T06:21:05.419Z,13.85
2023-11-20T06:23:32.006Z,13.97
2023-11-20T06:25:58.557Z,13.72
2023-11-20T06:28:25.097Z,13.89
2023-11-20T06:30:51.785Z,14.08
2023-11-20T06:33:18.402Z,14.00
2023-11-20T06:35:45.099Z,13.94
2023-11-20T06:38:11.658Z,14.15
2023-11-20T06:40:38.316Z,13.81
2023-11-20T06:43:04.974Z,14.00
2023-11-20T06:45:31.581Z,14.09
2023-11-20T06:47:58.249Z,14.28
2023-11-20T06:50:24.926Z,14.25
2023-11-20T06:52:51.523Z,14.11
2023-11-20T06:55:18.130Z,14.20
2023-11-20T06:57:44.757Z,14.04
2023-11-20T07:00:11.358Z,14.06
2023-11-20T07:02:38.012Z,14.32
2023-11-20T07:05:04.755Z,14.05
2023-11-20T07:07:31.388Z,14.08
2023-11-20T07:09:58.009Z,14.15
2023-11-20T07:12:24.621Z,14.00
2023-11-20T07:14:51.182Z,14.15
2023-11-20T07:17:17.737Z,14.27
2023-11-20T07:19:44.304Z,14.41
2023-11-20T07:22:10.942Z,14.33
2023-11-20T07:24:37.585Z,14.39
2023-11-20T07:27:04.158Z,14.36
2023-11-20T07:29:30.741Z,14.57
2023-11-20T07:31:57.348Z,14.51
2023-11-20T07:34:23.962Z,14.41
2023-11-20T07:36:50.657Z,14.55
2023-11-20T07:39:17.261Z,14.66
2023-11-20T07:41:43.847Z,14.44
2023-11-20T07:44:10.441Z,14.60
2023-11-20T07:46:37.341Z,14.77
2023-11-20T07:49:04.073Z,14.53
2023-11-20T07:51:30.687Z,14.63
2023-11-20T07:53:57.252Z,14.56
2023-11-20T07:56:23.846Z,14.69
2023-11-20T07:58:50.468Z,14.63
2023-11-20T08:01:17.116Z,14.84
2023-11-20T08:03:43.848Z,14.65
2023-11-20T08:06:19.640Z,14.61
2023-11-20T08:08:47.609Z,14.63
2023-11-20T08:11:14.208Z,14.71
2023-11-20T08:13:40.751Z,14.76
2023-11-20T08:16:07.551Z,14.56
2023-11-20T08:18:34.153Z,14.69
2023-11-20T08:21:00.749Z,14.64
2023-11-20T08:23:27.616Z,14.63
2023-11-20T08:25:54.213Z,14.63
2023-11-20T08:28:20.877Z,14.75
2023-11-20T08:30:47.556Z,14.78
2023-11-20T08:33:14.153Z,14.84
2023-11-20T08:35:40.806Z,14.89
2023-11-20T08:38:07.382Z,14.80
2023-11-20T08:40:34.072Z,14.79
2023-11-20T08:43:00.739Z,14.85
2023-11-20T08:45:27.584Z,14.89
2023-11-20T08:47:54.227Z,15.18
2023-11-20T08:50:21.904Z,15.29
2023-11-20T08:52:48.526Z,15.19
2023-11-20T08:57:42.069Z,15.57
2023-11-20T09:00:08.695Z,15.15
2023-11-20T09:02:35.295Z,15.21
2023-11-20T09:05:01.896Z,15.25
2023-11-20T09:07:28.458Z,15.22
2023-11-20T09:09:55.049Z,14.94
2023-11-20T09:12:21.630Z,15.50
2023-11-20T09:14:48.231Z,15.44
2023-11-20T09:17:14.893Z,15.45
2023-11-20T09:19:41.482Z,15.46
2023-11-20T09:22:08.096Z,15.39
2023-11-20T09:24:34.677Z,15.37
2023-11-20T09:27:01.240Z,15.52
2023-11-20T09:29:27.801Z,15.44
2023-11-20T09:31:54.392Z,15.41
2023-11-20T09:34:21.049Z,15.16
2023-11-20T09:36:47.692Z,15.30
2023-11-20T09:39:14.417Z,15.49
2023-11-20T09:41:41.093Z,15.40
2023-11-20T09:44:07.681Z,15.38
2023-11-20T09:46:34.406Z,15.37
2023-11-20T09:49:01.628Z,15.63
2023-11-20T09:51:28.247Z,15.24
2023-11-20T09:53:54.848Z,15.24
2023-11-20T09:56:21.459Z,15.43
2023-11-20T09:58:48.140Z,15.72
2023-11-20T10:01:15.844Z,15.57
2023-11-20T10:03:43.110Z,15.50
2023-11-20T10:06:09.825Z,15.35
2023-11-20T10:08:36.550Z,15.72
2023-11-20T10:11:03.157Z,15.21
2023-11-20T10:13:29.747Z,15.36
2023-11-20T10:15:56.465Z,15.55
2023-11-20T10:18:23.037Z,15.70
2023-11-20T10:20:49.669Z,15.85
2023-11-20T10:23:16.339Z,15.77
2023-11-20T10:25:42.971Z,15.51
2023-11-20T10:28:09.714Z,15.71
2023-11-20T10:30:36.321Z,15.61
2023-11-20T10:33:03.008Z,15.42
2023-11-20T10:35:29.754Z,15.55
2023-11-20T10:37:56.358Z,15.48
2023-11-20T10:40:22.958Z,15.24
2023-11-20T10:42:49.665Z,15.53
2023-11-20T10:45:16.267Z,15.49
2023-11-20T10:47:42.903Z,15.24
2023-11-20T10:50:09.518Z,15.39
2023-11-20T10:52:36.311Z,15.52
2023-11-20T10:55:02.931Z,15.57
2023-11-20T10:57:29.558Z,15.73
2023-11-20T10:59:56.124Z,15.47
2023-11-20T11:02:22.727Z,15.22
2023-11-20T11:04:49.420Z,15.52
2023-11-20T11:07:16.057Z,15.43
2023-11-20T11:09:42.646Z,15.43
2023-11-20T11:12:09.239Z,15.24
2023-11-20T11:14:35.864Z,15.22
2023-11-20T11:17:02.507Z,15.06
2023-11-20T11:19:29.133Z,15.24
2023-11-20T11:21:55.768Z,14.94
2023-11-20T11:24:22.342Z,15.21
2023-11-20T11:26:48.913Z,15.58
2023-11-20T11:29:15.508Z,15.48
2023-11-20T11:31:42.198Z,15.62
2023-11-20T11:34:08.804Z,15.27
2023-11-20T11:36:35.376Z,15.12
2023-11-20T11:39:01.942Z,15.22
2023-11-20T11:41:29.803Z,15.23
2023-11-20T11:43:56.399Z,15.34
2023-11-20T11:46:23.070Z,15.26
2023-11-20T11:48:49.662Z,15.38
2023-11-20T11:51:16.262Z,15.51
2023-11-20T11:53:42.851Z,15.69
2023-11-20T11:56:09.890Z,15.58
2023-11-20T11:58:36.479Z,15.80
2023-11-20T12:01:03.100Z,15.68
2023-11-20T12:03:29.740Z,15.69
2023-11-20T12:05:56.355Z,15.00
2023-11-20T12:08:22.922Z,15.11
2023-11-20T12:10:49.493Z,15.38
2023-11-20T12:13:16.198Z,15.45
2023-11-20T12:15:42.802Z,15.63
2023-11-20T12:18:09.418Z,15.73
2023-11-20T12:20:36.144Z,15.95
2023-11-20T12:23:02.766Z,15.98
2023-11-20T12:25:29.398Z,15.76
2023-11-20T12:27:56.043Z,15.93
2023-11-20T12:30:22.651Z,16.30
2023-11-20T12:32:49.253Z,15.66
2023-11-20T12:35:15.860Z,15.19
2023-11-20T12:37:42.441Z,15.34
2023-11-20T12:40:09.166Z,14.88
2023-11-20T12:42:35.758Z,15.12
2023-11-20T12:45:02.338Z,15.50
2023-11-20T12:47:28.921Z,15.03
2023-11-20T12:49:55.486Z,15.00
2023-11-20T12:52:22.120Z,15.09
2023-11-20T12:54:48.701Z,15.41
2023-11-20T12:57:15.279Z,14.95
2023-11-20T12:59:41.863Z,15.31
2023-11-20T13:02:08.449Z,15.46
2023-11-20T13:04:35.135Z,15.74
2023-11-20T13:07:01.860Z,15.75
2023-11-20T13:09:28.461Z,15.30
2023-11-20T13:11:55.115Z,15.46
2023-11-20T13:14:21.762Z,15.15
2023-11-20T13:16:48.581Z,15.30
2023-11-20T13:19:15.261Z,15.44
2023-11-20T13:21:41.877Z,15.64
2023-11-20T13:24:08.436Z,15.62
2023-11-20T13:26:35.007Z,15.78
2023-11-20T13:29:01.630Z,15.73
2023-11-20T13:31:28.235Z,15.82
2023-11-20T13:33:54.936Z,15.76
2023-11-20T13:36:21.549Z,15.47
2023-11-20T13:38:48.113Z,15.03
2023-11-20T13:41:14.683Z,15.44
2023-11-20T13:43:41.254Z,15.05
2023-11-20T13:46:08.133Z,14.88
2023-11-20T13:48:34.981Z,15.25
2023-11-20T13:51:01.797Z,15.45
2023-11-20T13:53:28.380Z,15.37
2023-11-20T13:55:54.971Z,15.20
2023-11-20T13:58:21.797Z,15.34
2023-11-20T14:00:48.391Z,15.12
2023-11-20T14:03:15.222Z,15.18
2023-11-20T14:05:41.890Z,15.21
2023-11-20T14:08:08.474Z,15.28
2023-11-20T14:10:35.098Z,15.43
2023-11-20T14:13:01.812Z,15.43
2023-11-20T14:15:28.388Z,15.58
2023-11-20T14:17:55.014Z,15.71
2023-11-20T14:20:21.874Z,15.71
2023-11-20T14:22:48.486Z,15.62
2023-11-20T14:25:15.469Z,15.39
2023-11-20T14:27:42.144Z,15.36
2023-11-20T14:30:08.755Z,15.33
2023-11-20T14:32:35.388Z,15.20
2023-11-20T14:35:01.978Z,15.08
2023-11-20T14:37:28.559Z,15.26
2023-11-20T14:39:55.198Z,15.19
2023-11-20T14:42:24.429Z,15.37
2023-11-20T14:44:54.144Z,15.44
2023-11-20T14:47:20.838Z,15.04
2023-11-20T14:49:49.234Z,14.93
2023-11-20T14:52:15.816Z,15.12
2023-11-20T14:54:43.603Z,15.00
2023-11-20T14:57:10.164Z,14.98
2023-11-20T14:59:36.760Z,14.56
2023-11-20T15:02:03.357Z,14.90
2023-11-20T15:04:30.063Z,14.61
2023-11-20T15:06:56.942Z,14.75
2023-11-20T15:09:23.540Z,15.03
2023-11-20T15:11:50.122Z,14.98
2023-11-20T15:14:16.787Z,15.04
2023-11-20T15:16:43.480Z,14.92
2023-11-20T15:19:10.163Z,15.18
2023-11-20T15:21:36.752Z,15.08
2023-11-20T15:24:03.334Z,15.12
2023-11-20T15:26:29.914Z,15.23
2023-11-20T15:28:56.503Z,14.88
2023-11-20T15:31:23.147Z,15.04
2023-11-20T15:33:49.750Z,15.14
2023-11-20T15:36:16.356Z,15.14
2023-11-20T15:38:43.002Z,15.04
2023-11-20T15:41:09.914Z,14.91
2023-11-20T15:43:36.642Z,15.04
2023-11-20T15:46:03.345Z,14.99
2023-11-20T15:48:29.985Z,15.00
2023-11-20T15:50:56.565Z,14.94
2023-11-20T15:53:23.355Z,14.99
2023-11-20T15:55:50.020Z,14.91
2023-11-20T15:58:16.628Z,14.90
2023-11-20T16:00:43.344Z,14.87
2023-11-20T16:03:10.002Z,14.69
2023-11-20T16:05:36.638Z,14.75
2023-11-20T16:08:03.204Z,14.84
2023-11-20T16:10:29.814Z,14.87
2023-11-20T16:12:56.447Z,14.78
2023-11-20T16:15:23.058Z,15.02
2023-11-20T16:17:49.666Z,14.81
2023-11-20T16:20:16.280Z,14.96
2023-11-20T16:22:42.890Z,14.94
2023-11-20T16:25:09.498Z,15.00
2023-11-20T16:27:36.108Z,14.89
2023-11-20T16:30:02.693Z,14.88
2023-11-20T16:32:29.371Z,14.99
2023-11-20T16:34:55.961Z,14.90
2023-11-20T16:37:22.634Z,14.98
2023-11-20T16:39:51.413Z,14.95
2023-11-20T16:42:18.019Z,14.95
2023-11-20T16:44:44.597Z,14.89
2023-11-20T16:47:11.225Z,14.34
2023-11-20T16:49:37.872Z,14.26
2023-11-20T16:52:04.488Z,14.34
2023-11-20T16:54:31.155Z,14.54
2023-11-20T16:56:57.778Z,14.52
2023-11-20T16:59:24.442Z,14.35
2023-11-20T17:01:51.134Z,14.25
2023-11-20T17:04:17.807Z,14.38
2023-11-20T17:06:44.458Z,14.51
2023-11-20T17:09:11.054Z,14.32
2023-11-20T17:11:37.643Z,14.24
2023-11-20T17:14:04.272Z,14.27
2023-11-20T17:16:31.114Z,14.35
2023-11-20T17:18:57.966Z,14.48
2023-11-20T17:21:24.647Z,14.35
2023-11-20T17:23:53.234Z,14.42
2023-11-20T17:26:19.822Z,14.49
2023-11-20T17:28:46.454Z,14.44
2023-11-20T17:31:15.078Z,14.67
2023-11-20T17:33:41.761Z,14.69
2023-11-20T17:36:08.351Z,14.77
2023-11-20T17:38:34.978Z,14.80
2023-11-20T17:41:01.562Z,14.86
2023-11-20T17:43:30.450Z,15.02
2023-11-20T17:45:57.178Z,14.92
2023-11-20T17:48:23.867Z,14.78
2023-11-20T17:50:50.452Z,14.74
2023-11-20T17:53:17.034Z,14.74
2023-11-20T17:55:43.669Z,14.82
2023-11-20T17:58:10.313Z,15.03
2023-11-20T18:00:37.009Z,14.93
2023-11-20T18:03:06.341Z,14.75
2023-11-20T18:05:37.257Z,15.04
2023-11-20T18:08:03.864Z,14.71
2023-11-20T18:10:30.528Z,14.47
2023-11-20T18:12:57.133Z,14.53
2023-11-20T18:15:25.313Z,14.12
2023-11-20T18:17:52.134Z,13.80
2023-11-20T18:20:18.888Z,14.33
2023-11-20T18:22:45.486Z,14.05
2023-11-20T18:25:12.135Z,13.82
2023-11-20T18:27:38.750Z,13.51
2023-11-20T18:30:05.360Z,13.81
2023-11-20T18:32:31.991Z,13.97
2023-11-20T18:34:58.617Z,13.74
2023-11-20T18:37:25.443Z,13.92
2023-11-20T18:39:52.072Z,13.54
2023-11-20T18:42:18.651Z,13.68
2023-11-20T18:44:45.404Z,13.52
2023-11-20T18:47:12.154Z,13.33
2023-11-20T18:49:38.849Z,13.33
2023-11-20T18:52:05.518Z,13.53
2023-11-20T18:54:32.121Z,13.76
2023-11-20T18:56:58.723Z,13.89
2023-11-20T18:59:25.296Z,13.67
2023-11-20T19:01:51.925Z,13.76
2023-11-20T19:04:18.690Z,13.96
2023-11-20T19:06:45.278Z,14.17
2023-11-20T19:09:11.873Z,14.01
2023-11-20T19:11:38.455Z,14.05
2023-11-20T19:14:05.128Z,13.89
2023-11-20T19:16:31.769Z,13.66
2023-11-20T19:18:58.384Z,13.69
2023-11-20T19:21:25.037Z,13.29
2023-11-20T19:23:51.488Z,13.31
2023-11-20T19:26:17.921Z,13.64
2023-11-20T19:28:44.356Z,13.94
2023-11-20T19:31:10.877Z,14.13
2023-11-20T19:33:37.335Z,13.91
2023-11-20T19:36:03.840Z,13.56
2023-11-20T19:38:30.273Z,13.45
2023-11-20T19:40:56.766Z,13.51
2023-11-20T19:43:23.236Z,13.63
2023-11-20T19:45:49.660Z,13.84
2023-11-20T19:48:16.145Z,13.70
2023-11-20T19:50:42.593Z,13.92
2023-11-20T19:53:09.089Z,13.66
2023-11-20T19:55:35.543Z,13.74
2023-11-20T19:58:02.054Z,13.66
2023-11-20T20:00:28.578Z,13.73
2023-11-20T20:02:55.084Z,14.06
2023-11-20T20:05:23.845Z,14.16
2023-11-20T20:07:54.607Z,13.82
2023-11-20T20:10:21.072Z,13.95
2023-11-20T20:12:47.533Z,14.06
2023-11-20T20:15:14.095Z,14.14
2023-11-20T20:17:43.694Z,13.62
2023-11-20T20:20:10.177Z,13.73
2023-11-20T20:22:37.201Z,13.89
2023-11-20T20:25:04.025Z,14.09
2023-11-20T20:27:30.618Z,14.10
2023-11-20T20:29:57.208Z,13.92
2023-11-20T20:32:23.798Z,14.14
2023-11-20T20:34:50.458Z,14.12
2023-11-20T20:37:17.137Z,14.38
2023-11-20T20:39:43.720Z,14.22
2023-11-20T20:42:10.579Z,14.00
2023-11-20T20:44:37.032Z,13.57
2023-11-20T20:47:03.525Z,13.81
2023-11-20T20:49:30.047Z,13.74
2023-11-20T20:51:56.483Z,13.80
2023-11-20T20:54:22.953Z,14.04
2023-11-20T20:56:49.372Z,14.05
2023-11-20T20:59:15.773Z,13.90
2023-11-20T21:01:42.286Z,13.77
2023-11-20T21:04:08.785Z,13.86
2023-11-20T21:06:35.345Z,13.74
2023-11-20T21:09:01.802Z,14.03
2023-11-20T21:11:28.273Z,13.88
2023-11-20T21:13:54.889Z,13.74
2023-11-20T21:16:23.013Z,13.50
2023-11-20T21:18:49.650Z,13.91
2023-11-20T21:21:16.268Z,13.46
2023-11-20T21:23:42.686Z,13.41
2023-11-20T21:26:09.269Z,13.97
2023-11-20T21:28:36.222Z,13.92
2023-11-20T21:31:04.803Z,13.48
2023-11-20T21:33:34.355Z,13.61
2023-11-20T21:36:00.830Z,13.35
2023-11-20T21:38:27.275Z,13.18
2023-11-20T21:40:53.873Z,13.24
2023-11-20T21:43:20.803Z,13.46
2023-11-20T21:45:51.537Z,13.86
2023-11-20T21:48:18.253Z,13.81
2023-11-20T21:50:45.028Z,13.92
2023-11-20T21:53:11.947Z,13.55
2023-11-20T21:55:39.025Z,13.44
2023-11-20T21:58:05.793Z,13.61
2023-11-20T22:00:32.442Z,13.41
2023-11-20T22:02:58.903Z,13.44
2023-11-20T22:05:25.385Z,13.31
2023-11-20T22:07:51.850Z,13.33
2023-11-20T22:10:18.324Z,13.27
2023-11-20T22:12:44.771Z,13.38
2023-11-20T22:15:11.180Z,13.65
2023-11-20T22:17:37.606Z,13.57
2023-11-20T22:20:04.228Z,13.57
2023-11-20T22:22:30.768Z,13.66
2023-11-20T22:24:57.188Z,13.95
2023-11-20T22:27:23.616Z,13.97
2023-11-20T22:29:50.051Z,13.85
2023-11-20T22:32:16.555Z,13.91
2023-11-20T22:34:43.220Z,13.75
2023-11-20T22:37:09.726Z,13.77
2023-11-20T22:39:36.160Z,13.82
2023-11-20T22:42:02.617Z,13.81
2023-11-20T22:44:29.133Z,14.15
2023-11-20T22:46:55.662Z,13.64
2023-11-20T22:49:22.262Z,13.87
2023-11-20T22:51:48.685Z,13.77
2023-11-20T22:54:15.147Z,13.87
2023-11-20T22:56:41.565Z,13.70
2023-11-20T22:59:08.023Z,13.51
2023-11-20T23:01:34.741Z,13.36
2023-11-20T23:04:01.464Z,13.60
2023-11-20T23:06:28.126Z,13.47
2023-11-20T23:08:54.708Z,13.38
2023-11-20T23:11:21.286Z,13.20
2023-11-20T23:13:47.954Z,13.19
2023-11-20T23:16:16.738Z,13.34
2023-11-20T23:18:43.574Z,13.15
2023-11-20T23:21:10.173Z,13.03
2023-11-20T23:23:36.765Z,12.77
2023-11-20T23:26:03.339Z,12.94
2023-11-20T23:28:30.024Z,13.34
2023-11-20T23:30:56.637Z,13.40
2023-11-20T23:33:23.223Z,13.32
2023-11-20T23:35:49.822Z,12.91
2023-11-20T23:38:16.421Z,13.03
2023-11-20T23:40:43.010Z,13.35
2023-11-20T23:43:09.891Z,13.47
2023-11-20T23:45:36.495Z,12.93
2023-11-20T23:48:03.084Z,12.87
2023-11-20T23:50:29.713Z,12.95
2023-11-20T23:52:56.306Z,12.72
2023-11-20T23:55:22.975Z,12.83
2023-11-20T23:57:49.600Z,13.10
